Weather reports worldwide

Advertisment
Gwinn, mi, United States of America (2074855): temperature & dewpoint: 12.10.2018 13:00:00 - 18.10.2018 13:00:00 (EDT)Gwinn, mi, United States of America (2074855): wind speed: 12.10.2018 13:00:00 - 18.10.2018 13:00:00 (EDT)Gwinn, mi, United States of America (2074855): wind direction: 12.10.2018 13:00:00 - 18.10.2018 13:00:00 (EDT)Gwinn, mi, United States of America (2074855): visibility: 12.10.2018 13:00:00 - 18.10.2018 13:00:00 (EDT)Gwinn, mi, United States of America (2074855): precipitation: 12.10.2018 13:00:00 - 18.10.2018 13:00:00 (EDT)
Date & Time tt [°C] td [°C] ff [km/h] ff [kn] dd vv [km] rr [mm]
18.10.2018 13:00:00 7,0 -5,0 31 17 SSW 16 -
18.10.2018 12:00:00 5,0 -6,0 46 25 SSW 16 -
18.10.2018 11:00:00 2,0 -6,0 31 17 SSW 16 -
18.10.2018 10:00:00 -1,0 -6,0 31 17 SW 16 -
18.10.2018 09:00:00 -2,0 -7,0 24 13 SSW 16 -
18.10.2018 08:00:00 -4,0 -7,0 22 12 SW 16 -
18.10.2018 07:00:00 -4,0 -6,0 13 7 SSW 16 -
18.10.2018 06:00:00 -5,1 -7,5 0 0 N 16 -
18.10.2018 05:00:00 -5,9 -8,4 0 0 N 16 -
18.10.2018 04:00:00 -5,0 -7,5 5 3 SSW 16 -
18.10.2018 03:00:00 -5,5 -7,6 0 0 N 16 -
18.10.2018 02:00:00 -4,8 -7,6 8 4 WSW 16 -
18.10.2018 01:00:00 -3,8 -7,5 5 3 SW 16 -
18.10.2018 00:00:00 -3,7 -7,6 0 0 N 16 -
17.10.2018 23:00:00 -2,6 -7,6 8 4 WSW 16 -
17.10.2018 22:00:00 -2,0 -8,0 8 4 NNW 16 -
17.10.2018 21:00:00 -1,0 -8,0 11 6 NW 16 -
17.10.2018 20:00:00 0,0 -9,0 15 8 NW 16 -
17.10.2018 19:00:00 0,0 -8,0 21 11 NNW 16 -
17.10.2018 18:00:00 1,0 -9,0 24 13 NNW 16 -
17.10.2018 17:00:00 2,0 -8,0 31 17 NNW 16 -
17.10.2018 16:00:00 1,0 -7,0 26 14 NW 16 -
17.10.2018 15:00:00 2,0 -5,0 31 17 NNW 16 -
17.10.2018 14:00:00 1,0 -3,0 22 12 NNW 16 -
17.10.2018 13:00:00 1,0 -2,0 34 18 NNW 2,4 -
17.10.2018 12:00:00 1,0 -1,0 21 11 W 2,4 -
17.10.2018 11:00:00 1,0 -1,0 29 16 W 8 -
17.10.2018 10:00:00 0,0 -3,0 11 6 W 8 -
17.10.2018 09:00:00 -2,0 -4,0 11 6 WSW 16 -
17.10.2018 08:00:00 -1,0 -3,0 11 6 WNW 16 -
17.10.2018 07:00:00 -2,0 -3,0 11 6 WNW 16 -
17.10.2018 06:00:00 -0,5 -2,0 13 7 W 11 -
17.10.2018 05:00:00 0,0 -3,0 11 6 WNW 16 -
17.10.2018 04:00:00 0,0 -2,9 11 6 NW 16 -
17.10.2018 03:00:00 0,0 -2,6 8 4 W 16 -
17.10.2018 02:00:00 0,0 -2,6 15 8 NW 16 -
17.10.2018 01:00:00 0,0 -1,6 18 10 NW 2,8 -
17.10.2018 00:00:00 1,8 -3,5 16 9 WNW 16 -
16.10.2018 23:00:00 2,1 -2,0 18 10 WNW 16 -
16.10.2018 22:00:00 2,0 -1,0 15 8 NW 16 -
16.10.2018 21:00:00 4,0 -3,0 24 13 WNW 16 -
16.10.2018 20:00:00 4,0 -3,0 18 10 WNW 16 -
16.10.2018 19:00:00 5,0 -3,0 31 17 WNW 16 -
16.10.2018 18:00:00 5,0 -3,0 29 16 WNW 16 -
16.10.2018 17:00:00 6,0 -2,0 22 12 WNW 16 -
16.10.2018 16:00:00 7,0 -1,0 26 14 NW 16 -
16.10.2018 15:00:00 10,0 0,0 31 17 WNW 16 -
16.10.2018 14:00:00 9,0 0,0 16 9 W 16 -
16.10.2018 13:00:00 9,0 0,0 21 11 WSW 16 -
16.10.2018 12:00:00 7,0 -1,0 24 13 WSW 16 -
16.10.2018 11:00:00 5,0 -2,0 24 13 WSW 16 -
16.10.2018 10:00:00 3,0 -2,0 21 11 SW 16 -
16.10.2018 09:00:00 0,0 -3,0 15 8 SW 16 -
16.10.2018 08:00:00 1,0 -3,0 22 12 SSW 16 -
16.10.2018 07:00:00 0,0 -3,0 15 8 SSW 16 -
16.10.2018 06:00:00 0,3 -2,6 15 8 SSW 16 -
16.10.2018 05:00:00 0,0 -2,8 15 8 S 16 -
16.10.2018 04:00:00 -0,2 -3,0 16 9 S 16 -
16.10.2018 03:00:00 -0,2 -3,3 15 8 S 16 -
16.10.2018 02:00:00 -0,5 -3,6 15 8 SW 16 -
16.10.2018 01:00:00 -0,5 -3,8 18 10 SW 16 -
16.10.2018 00:00:00 -1,0 -3,7 16 9 SSW 16 -
15.10.2018 23:00:00 -1,9 -4,0 15 8 SSW 16 -
15.10.2018 22:00:00 -2,0 -4,0 15 8 SSW 16 -
15.10.2018 21:00:00 -2,0 -4,0 9 5 S 16 -
15.10.2018 20:00:00 0,0 -3,0 9 5 SW 16 -
15.10.2018 19:00:00 1,0 -2,0 13 7 W 16 -
15.10.2018 18:00:00 2,0 -2,0 18 10 W 16 -
15.10.2018 17:00:00 2,0 -2,0 15 8 W 16 -
15.10.2018 16:00:00 2,0 -2,0 24 13 W 16 -
15.10.2018 15:00:00 1,0 -3,0 29 16 W 16 -
15.10.2018 14:00:00 1,0 -3,0 29 16 WNW 13 -
15.10.2018 13:00:00 0,0 -2,0 22 12 W 8 -
15.10.2018 12:00:00 -1,0 -3,0 21 11 W 11 -
15.10.2018 11:00:00 -1,0 -2,0 16 9 W 16 -
15.10.2018 10:00:00 0,0 -2,0 18 10 W 16 -
15.10.2018 09:00:00 0,0 -1,0 8 4 WSW 16 -
15.10.2018 08:00:00 0,0 -1,0 8 4 W 16 -
15.10.2018 07:00:00 0,0 -1,0 5 3 W 16 -
15.10.2018 06:00:00 -0,5 -1,6 8 4 W 16 -
15.10.2018 05:00:00 -0,1 -1,5 11 6 WNW 16 -
15.10.2018 04:00:00 0,0 -1,0 8 4 W 16 -
15.10.2018 03:00:00 0,0 -0,9 8 4 W 16 -
15.10.2018 02:00:00 0,0 -0,6 8 4 W 16 -
15.10.2018 01:00:00 0,0 -0,5 0 0 N 16 -
15.10.2018 00:00:00 0,0 -0,5 5 3 WNW 4,0 -
14.10.2018 23:00:00 0,0 -0,5 0 0 N 3,2 0,5
14.10.2018 22:00:00 0,0 0,0 0 0 N 2,4 -
14.10.2018 21:00:00 0,0 -1,0 0 0 N 2,4 -
14.10.2018 20:00:00 0,0 0,0 5 3 - 8 -
14.10.2018 19:00:00 1,0 0,0 0 0 N 8 -
14.10.2018 18:00:00 1,0 0,0 0 0 N 16 -
14.10.2018 17:00:00 1,0 0,0 8 4 NNW 11 -
14.10.2018 16:00:00 2,0 0,0 0 0 N 8 -
14.10.2018 15:00:00 3,0 -1,0 9 5 NW 11 -
14.10.2018 14:00:00 4,0 -2,0 0 0 N 16 -
14.10.2018 13:00:00 3,0 -2,0 8 4 WNW 16 -
14.10.2018 12:00:00 3,0 -2,0 15 8 NW 16 -
14.10.2018 11:00:00 3,0 -2,0 16 9 WNW 16 -
14.10.2018 10:00:00 2,0 -2,0 15 8 WNW 16 -
14.10.2018 09:00:00 3,0 -1,0 13 7 W 16 -
14.10.2018 08:00:00 3,0 0,0 11 6 WNW 16 -
14.10.2018 07:00:00 4,0 1,0 5 3 WNW 16 -
14.10.2018 06:00:00 4,3 1,6 18 10 NW 16 -
14.10.2018 05:00:00 5,1 2,2 11 6 WNW 16 -
14.10.2018 04:00:00 5,5 2,4 0 0 N 16 -
14.10.2018 03:00:00 5,5 2,2 0 0 N 16 -
14.10.2018 02:00:00 5,5 2,0 9 5 SSW 16 -
14.10.2018 01:00:00 5,2 1,5 8 4 SSW 16 -
14.10.2018 00:00:00 5,5 1,1 16 9 S 16 -
13.10.2018 23:00:00 5,5 0,8 22 12 S 16 -
13.10.2018 22:00:00 6,0 0,0 18 10 S 16 -
13.10.2018 21:00:00 6,0 0,0 16 9 S 16 -
13.10.2018 20:00:00 6,0 0,0 15 8 SSW 16 -
13.10.2018 19:00:00 7,0 -1,0 22 12 S 16 -
13.10.2018 18:00:00 7,0 -2,0 24 13 S 16 -
13.10.2018 17:00:00 8,0 -2,0 26 14 S 16 -
13.10.2018 16:00:00 9,0 -1,0 28 15 S 16 -
13.10.2018 15:00:00 8,0 -2,0 26 14 SSW 16 -
13.10.2018 14:00:00 7,0 -1,0 21 11 SW 16 -
13.10.2018 13:00:00 5,0 -2,0 16 9 SSW 16 -
13.10.2018 12:00:00 2,0 -2,0 9 5 SSW 16 -
13.10.2018 11:00:00 -1,0 -3,0 9 5 SW 16 -
13.10.2018 10:00:00 -3,0 -4,0 11 6 SSW 16 -
13.10.2018 09:00:00 -4,0 -5,0 9 5 S 16 -
13.10.2018 08:00:00 -4,0 -5,0 5 3 SSE 16 -
13.10.2018 07:00:00 -4,0 -5,0 5 3 SSW 16 -
13.10.2018 06:00:00 -3,5 -5,3 8 4 SSW 16 -
13.10.2018 05:00:00 -3,1 -5,1 0 0 N 16 -
13.10.2018 04:00:00 -3,2 -5,1 5 3 SW 16 -
13.10.2018 03:00:00 -2,6 -5,0 8 4 SSW 16 -
13.10.2018 02:00:00 -2,5 -5,1 9 5 SW 16 -
13.10.2018 01:00:00 -1,0 -5,3 5 3 WSW 16 -
13.10.2018 00:00:00 -0,5 -4,9 11 6 W 16 -
12.10.2018 23:00:00 -0,5 -4,8 9 5 WSW 16 -
12.10.2018 22:00:00 -1,0 -5,0 13 7 W 16 -
12.10.2018 21:00:00 -1,0 -5,0 13 7 WNW 16 -
12.10.2018 20:00:00 -1,0 -4,0 8 4 W 16 -
12.10.2018 19:00:00 0,0 -5,0 13 7 WNW 16 -
12.10.2018 18:00:00 0,0 -5,0 16 9 W 16 -
12.10.2018 17:00:00 0,0 -5,0 22 12 W 16 -
12.10.2018 16:00:00 0,0 -5,0 15 8 W 16 -
12.10.2018 15:00:00 0,0 -5,0 18 10 W 16 -
12.10.2018 14:00:00 1,0 -4,0 18 10 W 16 -
12.10.2018 13:00:00 1,0 -4,0 24 13 W 16 -

tt = temperature
td = dewpoint
ff = wind speed
dd = wind direction
vv = visibility
rr = precipitation

Next stations